Time;durP1;ratioP1;P1;durP2;ratioP2;P2;SDS_P1;SDS_P2;PMS_P1;PMS_P2;Temp;Humidity;BMP_temperature;BMP_pressure;BME280_temperature;BME280_humidity;BME280_pressure;Samples;Min_cycle;Max_cycle;Signal;HPM_P1;HPM_P2
2021/10/23 00:02:24;;;;;;;3.67;3.37;;;13.70;91.30;;;;;;4945445;29;20217;-73
2021/10/23 00:04:52;;;;;;;21.50;3.37;;;13.70;91.40;;;;;;4949867;29;20249;-72
2021/10/23 00:07:20;;;;;;;4.87;4.50;;;13.70;91.40;;;;;;4946245;28;20549;-72
2021/10/23 00:09:47;;;;;;;17.23;7.23;;;13.70;91.40;;;;;;4946370;29;20248;-72
2021/10/23 00:12:14;;;;;;;10.60;8.03;;;13.70;91.40;;;;;;4948982;28;20217;-72
2021/10/23 00:14:42;;;;;;;4.10;3.03;;;13.80;91.40;;;;;;4947155;29;20219;-73
2021/10/23 00:17:10;;;;;;;13.50;6.20;;;13.80;91.30;;;;;;4954815;28;20228;-73
2021/10/23 00:19:38;;;;;;;7.47;4.13;;;13.80;91.30;;;;;;4949576;29;20630;-74
2021/10/23 00:22:05;;;;;;;11.80;5.57;;;13.80;91.20;;;;;;4953019;28;20471;-73
2021/10/23 00:24:33;;;;;;;3.20;3.03;;;13.90;91.20;;;;;;4976495;28;20221;-73
2021/10/23 00:27:00;;;;;;;9.73;6.50;;;13.90;91.20;;;;;;4951208;29;20606;-73
2021/10/23 00:29:27;;;;;;;10.30;6.87;;;13.90;91.30;;;;;;4945778;29;20234;-73
2021/10/23 00:31:54;;;;;;;6.53;5.93;;;13.90;91.30;;;;;;4947244;28;20626;-73
2021/10/23 00:34:21;;;;;;;11.43;7.83;;;13.90;91.30;;;;;;4946641;29;20215;-73
2021/10/23 00:36:49;;;;;;;9.27;5.57;;;13.90;91.30;;;;;;4947182;29;20317;-73
2021/10/23 00:39:17;;;;;;;6.83;4.27;;;13.90;91.30;;;;;;4949109;29;20223;-73
2021/10/23 00:41:45;;;;;;;10.00;7.70;;;14.00;91.30;;;;;;4948857;29;20217;-73
2021/10/23 00:44:32;;;;;;;11.37;5.80;;;14.00;91.50;;;;;;4948893;28;20221;-73
2021/10/23 00:47:09;;;;;;;7.57;6.87;;;14.00;91.20;;;;;;4951896;28;20219;-73
2021/10/23 00:49:38;;;;;;;6.53;6.00;;;14.00;91.20;;;;;;4948219;29;20321;-73
2021/10/23 00:52:08;;;;;;;12.53;6.97;;;14.00;91.20;;;;;;4953758;28;20222;-74
2021/10/23 00:54:36;;;;;;;15.27;5.70;;;14.10;91.20;;;;;;4944904;28;20214;-73
2021/10/23 00:57:05;;;;;;;7.30;5.17;;;14.10;91.30;;;;;;4947086;29;20680;-73
2021/10/23 00:59:34;;;;;;;17.70;5.17;;;14.10;91.30;;;;;;4945492;28;20552;-74
2021/10/23 01:02:04;;;;;;;9.50;4.87;;;14.10;91.30;;;;;;4977512;28;20225;-73
2021/10/23 01:04:32;;;;;;;5.83;4.53;;;14.10;91.20;;;;;;4946832;29;20222;-73
2021/10/23 01:06:59;;;;;;;13.67;8.13;;;14.10;91.20;;;;;;4951915;28;20599;-74
2021/10/23 01:09:26;;;;;;;4.00;3.13;;;14.10;91.10;;;;;;4948388;28;20244;-73
2021/10/23 01:11:54;;;;;;;8.20;5.23;;;14.10;91.10;;;;;;4944368;28;20225;-73
2021/10/23 01:14:24;;;;;;;4.00;3.57;;;14.10;91.10;;;;;;4947241;28;20226;-73
2021/10/23 01:16:54;;;;;;;9.23;5.87;;;14.10;91.20;;;;;;4944828;28;20222;-73
2021/10/23 01:19:22;;;;;;;7.50;6.77;;;14.10;91.20;;;;;;4945034;28;20245;-73
2021/10/23 01:21:50;;;;;;;12.17;5.93;;;14.10;91.20;;;;;;4945281;28;20572;-73
2021/10/23 01:24:18;;;;;;;19.17;7.20;;;14.10;91.20;;;;;;4943114;28;20219;-74
2021/10/23 01:26:46;;;;;;;5.97;5.00;;;14.10;91.10;;;;;;4978313;28;20554;-75
2021/10/23 01:29:17;;;;;;;13.43;7.00;;;14.00;91.10;;;;;;4944374;29;20254;-75
2021/10/23 01:31:46;;;;;;;10.87;7.67;;;14.00;91.10;;;;;;4945261;29;20349;-76
2021/10/23 01:34:21;;;;;;;11.37;6.30;;;14.00;91.10;;;;;;4946567;28;20288;-76
2021/10/23 01:36:51;;;;;;;8.57;4.77;;;14.00;91.10;;;;;;4982258;28;20218;-76
2021/10/23 01:39:20;;;;;;;17.00;7.93;;;13.90;91.10;;;;;;4944570;28;20567;-76
2021/10/23 01:41:47;;;;;;;4.70;4.40;;;13.90;91.20;;;;;;4945707;28;20562;-75
2021/10/23 01:44:16;;;;;;;7.00;3.77;;;13.90;91.20;;;;;;4946233;29;20631;-74
2021/10/23 01:46:44;;;;;;;5.13;4.70;;;13.90;91.20;;;;;;4944180;28;20291;-73
2021/10/23 01:49:12;;;;;;;18.73;5.27;;;13.90;91.40;;;;;;4937184;29;20325;-73
2021/10/23 01:51:39;;;;;;;22.63;5.10;;;13.90;91.20;;;;;;4946100;29;20222;-73
2021/10/23 01:54:09;;;;;;;22.70;7.20;;;13.90;91.20;;;;;;4943143;28;20277;-73
2021/10/23 01:56:39;;;;;;;7.47;5.00;;;13.90;91.20;;;;;;4949265;29;20874;-73
2021/10/23 01:59:07;;;;;;;7.83;5.40;;;13.90;91.20;;;;;;4951261;29;20218;-75
2021/10/23 02:01:35;;;;;;;10.93;8.30;;;13.90;91.20;;;;;;4947285;29;20285;-75
2021/10/23 02:04:03;;;;;;;11.00;5.90;;;13.90;91.20;;;;;;4944202;29;20661;-75
2021/10/23 02:06:31;;;;;;;14.70;8.33;;;13.90;91.30;;;;;;4946285;28;20721;-75
2021/10/23 02:09:00;;;;;;;27.50;7.67;;;13.90;91.20;;;;;;4945362;29;20226;-75
2021/10/23 02:11:28;;;;;;;14.90;9.87;;;13.90;91.20;;;;;;4944969;28;20253;-75
2021/10/23 02:13:54;;;;;;;12.07;4.23;;;13.90;91.20;;;;;;4946685;29;20232;-75
2021/10/23 02:16:22;;;;;;;19.33;5.97;;;13.90;91.20;;;;;;4943703;29;20317;-75
2021/10/23 02:18:49;;;;;;;5.60;4.70;;;13.90;91.30;;;;;;4941058;28;20651;-75
2021/10/23 02:21:17;;;;;;;10.80;6.20;;;13.90;91.30;;;;;;4953475;28;20222;-75
2021/10/23 02:23:45;;;;;;;8.43;7.37;;;13.90;91.30;;;;;;4943282;28;20233;-74
2021/10/23 02:26:12;;;;;;;14.67;8.27;;;13.90;91.30;;;;;;4979570;28;20226;-73
2021/10/23 02:28:40;;;;;;;6.97;6.10;;;13.90;91.30;;;;;;4954529;29;20591;-73
2021/10/23 02:31:07;;;;;;;24.90;10.60;;;13.90;91.20;;;;;;4949557;29;20244;-75
2021/10/23 02:33:34;;;;;;;24.70;8.70;;;13.90;91.20;;;;;;4947159;29;20605;-75
2021/10/23 02:36:02;;;;;;;11.17;6.93;;;13.90;91.30;;;;;;4949054;29;20627;-73
2021/10/23 02:38:30;;;;;;;14.27;8.57;;;13.90;91.30;;;;;;4938538;29;20234;-73
2021/10/23 02:40:59;;;;;;;8.87;7.00;;;13.90;91.30;;;;;;4937945;29;20568;-73
2021/10/23 02:43:26;;;;;;;9.40;5.73;;;13.90;91.30;;;;;;4938197;29;20278;-74
2021/10/23 02:45:53;;;;;;;12.17;7.93;;;14.00;91.30;;;;;;4942030;29;20245;-74
2021/10/23 02:48:21;;;;;;;10.93;4.90;;;14.00;91.20;;;;;;4951655;28;20221;-74
2021/10/23 02:50:49;;;;;;;14.13;7.87;;;14.00;91.20;;;;;;4960748;28;20261;-73
2021/10/23 02:53:16;;;;;;;22.30;6.80;;;14.00;91.30;;;;;;4961540;28;20217;-73
2021/10/23 02:55:44;;;;;;;13.07;9.73;;;14.00;91.20;;;;;;4960233;28;20650;-75
2021/10/23 02:58:11;;;;;;;13.47;5.93;;;14.00;91.20;;;;;;4958584;29;20614;-75
2021/10/23 03:00:39;;;;;;;6.93;4.10;;;14.00;91.20;;;;;;4941945;28;20229;-75
2021/10/23 03:03:06;;;;;;;7.23;5.70;;;14.00;91.20;;;;;;4938656;29;20218;-75
2021/10/23 03:05:34;;;;;;;9.30;5.60;;;14.00;91.20;;;;;;4969548;28;20215;-75
2021/10/23 03:08:02;;;;;;;9.17;6.60;;;14.00;91.20;;;;;;4970022;28;20220;-75
2021/10/23 03:10:29;;;;;;;40.03;11.13;;;14.00;91.20;;;;;;4938977;29;20550;-75
2021/10/23 03:12:57;;;;;;;18.63;6.67;;;14.00;91.20;;;;;;4939235;29;20566;-75
2021/10/23 03:15:24;;;;;;;36.27;8.37;;;14.00;91.20;;;;;;4937867;29;20222;-75
2021/10/23 03:17:51;;;;;;;8.03;6.43;;;14.00;91.20;;;;;;4943346;28;20705;-75
2021/10/23 03:20:19;;;;;;;12.23;7.70;;;14.10;91.30;;;;;;4958168;28;20209;-75
2021/10/23 03:22:46;;;;;;;7.47;4.17;;;14.10;91.30;;;;;;4958603;28;20296;-75
2021/10/23 03:25:13;;;;;;;14.83;6.03;;;14.10;91.30;;;;;;4958508;28;20218;-75
2021/10/23 03:27:41;;;;;;;4.77;4.33;;;14.10;91.30;;;;;;4988382;28;20260;-75
2021/10/23 03:30:09;;;;;;;9.90;8.43;;;14.00;91.30;;;;;;4958051;28;20225;-75
2021/10/23 03:32:36;;;;;;;16.60;8.63;;;14.00;91.30;;;;;;4957709;28;20229;-74
2021/10/23 03:35:05;;;;;;;9.77;8.40;;;14.10;91.30;;;;;;4957886;28;20213;-75
2021/10/23 03:37:35;;;;;;;22.70;5.97;;;14.10;91.30;;;;;;4958095;28;20206;-75
2021/10/23 03:40:06;;;;;;;9.67;6.67;;;14.10;91.30;;;;;;4957681;29;20237;-75
2021/10/23 03:42:34;;;;;;;9.87;4.83;;;14.10;91.30;;;;;;4956547;28;20224;-75
2021/10/23 03:45:01;;;;;;;6.03;3.70;;;14.10;91.30;;;;;;4957458;29;20363;-75
2021/10/23 03:47:28;;;;;;;21.50;7.20;;;14.10;91.30;;;;;;4956207;28;20222;-75
2021/10/23 03:49:55;;;;;;;12.27;7.83;;;14.10;91.30;;;;;;4958056;28;20281;-74
2021/10/23 03:52:23;;;;;;;14.10;9.10;;;14.10;91.30;;;;;;4956344;28;20256;-75
2021/10/23 03:54:51;;;;;;;15.93;6.70;;;14.10;91.30;;;;;;4957277;28;20217;-75
2021/10/23 03:57:18;;;;;;;9.97;5.20;;;14.10;91.30;;;;;;4956679;28;20255;-74
2021/10/23 03:59:47;;;;;;;26.30;7.10;;;14.10;91.30;;;;;;4956461;29;20502;-74
2021/10/23 04:02:16;;;;;;;27.80;7.13;;;14.10;91.30;;;;;;4956281;28;20269;-75
2021/10/23 04:04:43;;;;;;;10.23;7.63;;;14.10;91.30;;;;;;4956522;28;20214;-75
2021/10/23 04:07:10;;;;;;;12.03;5.63;;;14.10;91.30;;;;;;4956957;28;20210;-75
2021/10/23 04:09:38;;;;;;;5.73;3.93;;;14.10;91.30;;;;;;4957644;28;20210;-75
2021/10/23 04:12:05;;;;;;;7.07;5.77;;;14.10;91.30;;;;;;4955910;28;20584;-75
2021/10/23 04:14:33;;;;;;;17.90;7.43;;;14.10;91.30;;;;;;4957306;28;20229;-76
2021/10/23 04:17:00;;;;;;;8.87;6.40;;;14.10;91.20;;;;;;4987893;28;20300;-75
2021/10/23 04:19:28;;;;;;;16.23;6.23;;;14.10;91.20;;;;;;4988584;28;20635;-76
2021/10/23 04:21:55;;;;;;;12.27;7.27;;;14.10;91.20;;;;;;4956777;29;20225;-73
2021/10/23 04:24:22;;;;;;;17.77;5.13;;;14.20;91.30;;;;;;4956996;28;20682;-73
2021/10/23 04:26:52;;;;;;;7.03;6.27;;;14.20;91.20;;;;;;4956716;28;20221;-73
2021/10/23 04:29:22;;;;;;;19.33;6.70;;;14.20;91.20;;;;;;4956104;29;20296;-73
2021/10/23 04:31:50;;;;;;;17.63;3.87;;;14.20;91.20;;;;;;4957120;29;20259;-73
2021/10/23 04:34:17;;;;;;;8.23;5.63;;;14.10;91.20;;;;;;4957442;28;20225;-73
2021/10/23 04:36:45;;;;;;;8.77;6.77;;;14.20;91.20;;;;;;4956500;28;20198;-74
2021/10/23 04:39:14;;;;;;;8.73;6.10;;;14.20;91.20;;;;;;4957268;28;20221;-73
2021/10/23 04:41:41;;;;;;;8.07;6.63;;;14.20;91.10;;;;;;4956582;28;20548;-73
2021/10/23 04:44:08;;;;;;;6.07;5.53;;;14.20;91.10;;;;;;4956380;28;20217;-73
2021/10/23 04:46:36;;;;;;;18.20;8.03;;;14.20;91.10;;;;;;4956517;29;20217;-73
2021/10/23 04:49:03;;;;;;;11.83;6.70;;;14.20;91.10;;;;;;4957921;28;20237;-74
2021/10/23 04:51:30;;;;;;;18.87;6.73;;;14.20;91.10;;;;;;4957561;28;20288;-74
2021/10/23 04:53:58;;;;;;;6.87;4.00;;;14.20;91.10;;;;;;4957506;28;20206;-75
2021/10/23 04:56:25;;;;;;;8.37;5.03;;;14.20;91.10;;;;;;4957231;28;20625;-73
2021/10/23 04:58:52;;;;;;;7.87;7.00;;;14.20;91.10;;;;;;4956082;28;20557;-73
2021/10/23 05:01:20;;;;;;;4.67;3.97;;;14.30;91.10;;;;;;4956785;28;20217;-73
2021/10/23 05:03:47;;;;;;;10.77;5.77;;;14.30;91.10;;;;;;4957544;28;20232;-73
2021/10/23 05:06:15;;;;;;;12.00;7.03;;;14.30;91.10;;;;;;4956380;28;20219;-73
2021/10/23 05:08:43;;;;;;;12.27;6.90;;;14.30;91.10;;;;;;4955108;28;20213;-73
2021/10/23 05:11:11;;;;;;;7.43;4.83;;;14.30;91.10;;;;;;4956805;28;20233;-73
2021/10/23 05:13:38;;;;;;;12.53;5.37;;;14.30;91.00;;;;;;4952813;28;20230;-73
2021/10/23 05:16:05;;;;;;;6.50;3.93;;;14.30;91.00;;;;;;4936857;29;20273;-73
2021/10/23 05:18:33;;;;;;;6.73;4.33;;;14.30;91.00;;;;;;4937223;29;20273;-73
2021/10/23 05:21:01;;;;;;;17.63;8.00;;;14.30;91.00;;;;;;4937320;28;20214;-73
2021/10/23 05:23:29;;;;;;;7.50;5.10;;;14.30;91.00;;;;;;4936167;29;20216;-73
2021/10/23 05:25:57;;;;;;;10.20;9.20;;;14.30;91.00;;;;;;4935869;29;20654;-73
2021/10/23 05:28:24;;;;;;;11.47;7.67;;;14.30;91.00;;;;;;4936511;29;20246;-73
2021/10/23 05:30:52;;;;;;;7.83;6.53;;;14.30;91.10;;;;;;4937937;29;20235;-73
2021/10/23 05:33:19;;;;;;;7.00;6.00;;;14.30;91.10;;;;;;4936198;29;20644;-73
2021/10/23 05:35:46;;;;;;;7.83;6.67;;;14.30;91.10;;;;;;4944033;28;20538;-73
2021/10/23 05:38:15;;;;;;;9.50;6.20;;;14.30;91.10;;;;;;4956600;28;20322;-73
2021/10/23 05:40:42;;;;;;;5.57;4.20;;;14.30;91.10;;;;;;4955585;28;20712;-74
2021/10/23 05:43:09;;;;;;;8.00;7.03;;;14.30;91.10;;;;;;4952048;28;20230;-74
2021/10/23 05:45:37;;;;;;;4.13;3.73;;;14.30;91.10;;;;;;4968839;28;20278;-74
2021/10/23 05:48:04;;;;;;;11.53;7.13;;;14.30;91.10;;;;;;4936789;29;20211;-73
2021/10/23 05:50:32;;;;;;;7.50;4.30;;;14.30;91.10;;;;;;4935783;29;20341;-73
2021/10/23 05:53:00;;;;;;;4.57;3.30;;;14.30;91.10;;;;;;4935815;29;20647;-73
2021/10/23 05:55:27;;;;;;;6.67;4.57;;;14.30;91.10;;;;;;4936040;29;20216;-73
2021/10/23 05:57:54;;;;;;;5.17;4.67;;;14.30;91.20;;;;;;4967823;28;20214;-73
2021/10/23 06:00:21;;;;;;;6.67;3.60;;;14.30;91.20;;;;;;4935453;29;20210;-74
2021/10/23 06:02:49;;;;;;;5.90;5.23;;;14.30;91.20;;;;;;4967634;28;20586;-74
2021/10/23 06:05:16;;;;;;;13.67;4.57;;;14.30;91.20;;;;;;4936380;29;20363;-73
2021/10/23 06:07:43;;;;;;;6.13;5.50;;;14.40;91.20;;;;;;4936665;29;20631;-73
2021/10/23 06:10:12;;;;;;;8.97;6.23;;;14.40;91.20;;;;;;4937511;29;20214;-73
2021/10/23 06:12:42;;;;;;;4.73;3.97;;;14.40;91.20;;;;;;4941667;28;20217;-74
2021/10/23 06:15:10;;;;;;;25.87;7.87;;;14.40;91.20;;;;;;4955532;28;20224;-74
2021/10/23 06:17:37;;;;;;;22.47;6.83;;;14.40;91.20;;;;;;4955486;28;20210;-74
2021/10/23 06:20:06;;;;;;;9.87;5.77;;;14.40;91.20;;;;;;4957070;28;20244;-73
2021/10/23 06:22:33;;;;;;;8.50;6.60;;;14.40;91.20;;;;;;4960124;28;20217;-73
2021/10/23 06:25:02;;;;;;;12.40;6.93;;;14.40;91.20;;;;;;4959285;28;20221;-73
2021/10/23 06:27:30;;;;;;;7.40;5.63;;;14.40;91.20;;;;;;4957921;28;20753;-73
2021/10/23 06:29:58;;;;;;;5.53;4.97;;;14.40;91.20;;;;;;4958958;29;20210;-75
2021/10/23 06:32:29;;;;;;;6.87;4.07;;;14.50;91.20;;;;;;4958030;28;20686;-75
2021/10/23 06:34:58;;;;;;;8.23;4.87;;;14.50;91.20;;;;;;4957788;28;20540;-76
2021/10/23 06:37:27;;;;;;;8.13;4.43;;;14.50;91.20;;;;;;4958135;28;20556;-73
2021/10/23 06:39:56;;;;;;;14.87;3.93;;;14.60;91.20;;;;;;4990252;28;20214;-73
2021/10/23 06:42:23;;;;;;;12.67;6.93;;;14.70;91.10;;;;;;4989665;28;20226;-73
2021/10/23 06:44:51;;;;;;;11.83;4.70;;;14.80;91.10;;;;;;4958225;28;20590;-73
2021/10/23 06:47:18;;;;;;;8.03;5.83;;;14.80;91.00;;;;;;4957702;29;20561;-73
2021/10/23 06:49:46;;;;;;;10.87;6.37;;;14.90;91.00;;;;;;4958943;28;20302;-73
2021/10/23 06:52:13;;;;;;;5.87;5.30;;;15.00;90.90;;;;;;4957932;28;20233;-75
2021/10/23 06:54:41;;;;;;;17.50;7.60;;;15.10;90.80;;;;;;4959037;28;20229;-74
2021/10/23 06:57:08;;;;;;;8.97;6.10;;;15.20;90.60;;;;;;4958577;28;20631;-74
2021/10/23 06:59:56;;;;;;;9.37;5.90;;;15.30;90.50;;;;;;4958986;28;20284;-75
2021/10/23 07:02:23;;;;;;;8.30;7.30;;;15.30;90.30;;;;;;4958899;28;20210;-73
2021/10/23 07:04:51;;;;;;;10.80;6.60;;;15.40;90.30;;;;;;4959363;28;20216;-74
2021/10/23 07:07:18;;;;;;;7.77;4.97;;;15.40;90.20;;;;;;4958446;28;20213;-74
2021/10/23 07:09:45;;;;;;;8.27;6.40;;;15.40;90.10;;;;;;4990278;28;20256;-75
2021/10/23 07:12:13;;;;;;;7.53;6.63;;;15.40;90.10;;;;;;4958677;28;20304;-74
2021/10/23 07:14:41;;;;;;;12.47;7.00;;;15.50;90.10;;;;;;4958933;28;20238;-73
2021/10/23 07:17:09;;;;;;;19.77;5.73;;;15.50;90.10;;;;;;4957101;28;20237;-73
2021/10/23 07:19:36;;;;;;;5.87;4.73;;;15.50;90.00;;;;;;4958309;28;20302;-73
2021/10/23 07:22:03;;;;;;;10.53;5.70;;;15.50;90.00;;;;;;4988740;28;20260;-73
2021/10/23 07:24:31;;;;;;;13.50;6.03;;;15.50;90.00;;;;;;4958189;28;20206;-73
2021/10/23 07:26:58;;;;;;;24.77;5.40;;;15.50;90.00;;;;;;4957707;28;20225;-73
2021/10/23 07:29:25;;;;;;;8.13;7.30;;;15.50;90.10;;;;;;4959065;28;20229;-73
2021/10/23 07:31:52;;;;;;;15.27;7.63;;;15.50;90.00;;;;;;4956472;28;20234;-73
2021/10/23 07:34:20;;;;;;;12.23;5.23;;;15.60;90.00;;;;;;4958312;28;20237;-73
2021/10/23 07:36:48;;;;;;;9.40;6.33;;;15.70;90.00;;;;;;4957833;28;20292;-73
2021/10/23 07:39:16;;;;;;;4.77;3.10;;;15.70;89.70;;;;;;4958154;28;20210;-73
2021/10/23 07:41:43;;;;;;;20.07;4.63;;;15.80;89.40;;;;;;4989076;28;20209;-73
2021/10/23 07:44:11;;;;;;;6.87;5.47;;;15.80;89.40;;;;;;4957984;28;20655;-73
2021/10/23 07:46:38;;;;;;;18.00;5.80;;;15.80;89.40;;;;;;4956968;28;20210;-73
2021/10/23 07:49:07;;;;;;;3.77;2.83;;;15.90;89.40;;;;;;4957501;29;20229;-73
2021/10/23 07:51:38;;;;;;;6.07;5.17;;;15.90;89.10;;;;;;4956656;28;20233;-73
2021/10/23 07:54:08;;;;;;;5.23;4.83;;;15.90;89.20;;;;;;4957862;28;20218;-73
2021/10/23 07:56:37;;;;;;;8.20;6.20;;;15.90;89.10;;;;;;4956502;29;20214;-74
2021/10/23 07:59:05;;;;;;;6.00;5.47;;;15.90;89.00;;;;;;4957663;28;20289;-74
2021/10/23 08:01:32;;;;;;;9.33;5.60;;;16.00;89.00;;;;;;4956037;29;20840;-74
2021/10/23 08:04:00;;;;;;;5.33;4.83;;;16.00;88.90;;;;;;4956329;28;20233;-74
2021/10/23 08:06:27;;;;;;;5.47;3.57;;;16.10;88.80;;;;;;4987645;28;20217;-74
2021/10/23 08:08:54;;;;;;;7.73;5.13;;;16.10;88.60;;;;;;4957174;28;20237;-75
2021/10/23 08:11:22;;;;;;;5.07;4.60;;;16.10;88.40;;;;;;4957359;28;20233;-75
2021/10/23 08:13:50;;;;;;;14.60;7.50;;;16.00;88.50;;;;;;4957372;28;20273;-75
2021/10/23 08:16:17;;;;;;;7.93;4.80;;;16.00;88.60;;;;;;4957223;28;20209;-75
2021/10/23 08:18:44;;;;;;;16.40;5.67;;;15.90;88.80;;;;;;4956695;28;20210;-75
2021/10/23 08:21:12;;;;;;;14.60;5.70;;;15.80;88.90;;;;;;4987796;28;20324;-74
2021/10/23 08:23:39;;;;;;;8.97;5.93;;;15.70;89.10;;;;;;4956061;28;20222;-73
2021/10/23 08:26:07;;;;;;;12.37;7.30;;;15.70;89.40;;;;;;4955915;29;20246;-74
2021/10/23 08:28:34;;;;;;;11.53;4.00;;;15.70;89.50;;;;;;4956768;28;20375;-74
2021/10/23 08:31:01;;;;;;;11.93;6.73;;;15.70;89.50;;;;;;4957288;28;20239;-74
2021/10/23 08:33:31;;;;;;;17.60;3.73;;;15.60;89.60;;;;;;4957707;28;20532;-74
2021/10/23 08:35:59;;;;;;;7.13;5.10;;;15.70;89.70;;;;;;4957526;28;20206;-74
2021/10/23 08:38:27;;;;;;;15.47;5.03;;;15.70;89.90;;;;;;4956134;28;20221;-75
2021/10/23 08:40:56;;;;;;;14.77;4.97;;;15.70;89.90;;;;;;4956736;28;20222;-74
2021/10/23 08:43:25;;;;;;;3.40;3.20;;;15.70;90.00;;;;;;4956390;28;20214;-74
2021/10/23 08:45:56;;;;;;;5.20;4.23;;;15.70;90.00;;;;;;4955746;29;20210;-74
2021/10/23 08:48:24;;;;;;;13.70;7.73;;;15.70;89.90;;;;;;4956360;29;20643;-74
2021/10/23 08:50:51;;;;;;;9.90;6.43;;;15.80;89.90;;;;;;4956398;28;20214;-74
2021/10/23 08:53:39;;;;;;;8.23;7.40;;;15.80;89.90;;;;;;4955853;28;20229;-74
2021/10/23 08:56:08;;;;;;;4.90;4.40;;;15.80;89.70;;;;;;4956431;28;20214;-74
2021/10/23 08:58:35;;;;;;;7.73;6.13;;;15.90;89.80;;;;;;4955648;28;20253;-74
2021/10/23 09:01:04;;;;;;;7.73;5.70;;;15.90;89.70;;;;;;4955800;28;20241;-74
2021/10/23 09:03:32;;;;;;;7.83;6.90;;;16.00;89.50;;;;;;4956019;28;20213;-74
2021/10/23 09:06:00;;;;;;;25.20;8.20;;;16.00;89.30;;;;;;4955725;28;20220;-73
2021/10/23 09:08:27;;;;;;;13.73;7.40;;;16.00;89.40;;;;;;4955728;28;20214;-73
2021/10/23 09:11:06;;;;;;;15.53;6.87;;;16.00;89.50;;;;;;4955443;28;20282;-73
2021/10/23 09:13:37;;;;;;;8.40;6.23;;;16.10;89.40;;;;;;4955431;28;20225;-73
2021/10/23 09:16:22;;;;;;;27.10;10.17;;;16.10;89.00;;;;;;4954591;28;20221;-73
2021/10/23 09:18:50;;;;;;;20.03;10.67;;;16.20;88.90;;;;;;4955458;29;20209;-73
2021/10/23 09:21:22;;;;;;;12.43;8.17;;;16.30;88.70;;;;;;4985906;28;20557;-73
2021/10/23 09:23:53;;;;;;;9.83;8.57;;;16.40;88.60;;;;;;4954721;28;20221;-73
2021/10/23 09:26:37;;;;;;;14.40;8.30;;;16.50;88.20;;;;;;4955334;28;20299;-73
2021/10/23 09:29:23;;;;;;;12.93;6.33;;;16.60;88.00;;;;;;4955456;28;20240;-73
2021/10/23 09:32:11;;;;;;;5.80;5.33;;;16.70;87.50;;;;;;4980809;28;20241;-73
2021/10/23 09:34:38;;;;;;;10.30;5.77;;;16.80;87.00;;;;;;4955486;28;20232;-73
2021/10/23 09:37:06;;;;;;;16.63;7.07;;;16.90;87.00;;;;;;4955285;28;20205;-72
2021/10/23 09:39:39;;;;;;;10.80;7.57;;;17.00;86.90;;;;;;4954592;29;20248;-73
2021/10/23 09:42:16;;;;;;;7.70;5.23;;;17.00;86.10;;;;;;4954060;28;20221;-73
2021/10/23 09:45:04;;;;;;;20.90;7.67;;;17.20;86.30;;;;;;4954672;28;20220;-73
2021/10/23 09:47:38;;;;;;;7.30;6.60;;;17.30;85.90;;;;;;4954100;29;20308;-73
2021/10/23 09:50:06;;;;;;;17.07;6.40;;;17.50;85.10;;;;;;4954441;29;20624;-73
2021/10/23 09:52:33;;;;;;;10.33;6.10;;;17.60;84.50;;;;;;4954858;28;20238;-72
2021/10/23 09:55:08;;;;;;;10.30;6.87;;;17.70;84.10;;;;;;4954109;28;20221;-72
2021/10/23 09:57:35;;;;;;;4.20;2.93;;;17.80;83.90;;;;;;4954957;29;20225;-73
2021/10/23 10:00:08;;;;;;;4.57;4.00;;;18.00;83.50;;;;;;4955207;28;20220;-73
2021/10/23 10:02:38;;;;;;;11.50;8.47;;;18.10;82.90;;;;;;4954961;28;20218;-73
2021/10/23 10:05:07;;;;;;;4.97;4.57;;;18.30;82.50;;;;;;4955566;28;20221;-72
2021/10/23 10:07:34;;;;;;;3.50;3.20;;;18.30;81.90;;;;;;4955072;28;20214;-72
2021/10/23 10:10:01;;;;;;;8.00;3.70;;;18.40;81.50;;;;;;4955450;28;20222;-72
2021/10/23 10:12:30;;;;;;;15.43;6.63;;;18.50;81.30;;;;;;4954313;28;20239;-73
2021/10/23 10:14:57;;;;;;;7.27;6.57;;;18.70;81.00;;;;;;4953801;29;20214;-73
2021/10/23 10:17:26;;;;;;;8.10;7.30;;;19.00;80.70;;;;;;4951753;29;20213;-73
2021/10/23 10:19:53;;;;;;;15.10;7.20;;;19.20;78.70;;;;;;4955546;28;20293;-72
2021/10/23 10:22:20;;;;;;;10.13;5.03;;;19.40;78.10;;;;;;4954701;28;20205;-72
2021/10/23 10:24:48;;;;;;;6.60;5.97;;;19.50;77.80;;;;;;4954827;28;20230;-72
2021/10/23 10:27:17;;;;;;;4.37;4.07;;;19.60;77.20;;;;;;4954429;28;20210;-72
2021/10/23 10:29:52;;;;;;;4.93;3.90;;;19.70;76.80;;;;;;4954370;28;20210;-74
2021/10/23 10:32:45;;;;;;;7.17;6.47;;;19.80;75.70;;;;;;4954003;28;20225;-74
2021/10/23 10:44:20;;;;;;;7.00;4.50;;;20.30;73.80;;;;;;4955353;28;20561;-74
2021/10/23 10:47:07;;;;;;;5.80;5.37;;;20.20;73.60;;;;;;4950081;29;20213;-75
2021/10/23 10:49:50;;;;;;;5.10;4.60;;;20.00;74.20;;;;;;4954214;29;20222;-75
2021/10/23 10:52:39;;;;;;;4.23;3.93;;;20.00;74.10;;;;;;4954532;28;20570;-75
2021/10/23 10:55:14;;;;;;;6.60;5.57;;;19.90;74.30;;;;;;4954075;29;20214;-74
2021/10/23 10:57:59;;;;;;;5.67;4.20;;;19.80;74.30;;;;;;4954728;28;20646;-75
2021/10/23 11:00:52;;;;;;;5.43;3.60;;;19.80;74.10;;;;;;4985697;28;20214;-75
2021/10/23 11:03:39;;;;;;;5.33;4.77;;;19.70;74.00;;;;;;4954059;29;20218;-74
2021/10/23 11:06:32;;;;;;;8.93;4.77;;;19.70;73.90;;;;;;4955269;28;20642;-74
2021/10/23 11:11:45;;;;;;;3.13;2.83;;;19.60;73.10;;;;;;4957534;28;20214;-75
2021/10/23 11:14:25;;;;;;;2.93;2.20;;;19.60;73.50;;;;;;4957029;28;20239;-74
2021/10/23 11:16:55;;;;;;;2.77;2.40;;;19.70;73.50;;;;;;4957604;28;20216;-74
2021/10/23 11:19:26;;;;;;;11.40;5.47;;;19.70;73.30;;;;;;4957545;28;20241;-74
2021/10/23 11:22:04;;;;;;;11.60;5.07;;;19.70;73.10;;;;;;4957196;28;20257;-74
2021/10/23 11:24:41;;;;;;;4.03;2.47;;;19.70;73.20;;;;;;4956852;29;20305;-74
2021/10/23 11:27:32;;;;;;;3.33;3.13;;;19.70;73.40;;;;;;4988300;28;20217;-74
2021/10/23 11:30:15;;;;;;;2.43;2.33;;;19.70;73.20;;;;;;4957724;28;20635;-74
2021/10/23 11:32:56;;;;;;;3.50;3.23;;;19.60;73.00;;;;;;4957559;28;20221;-74
2021/10/23 11:35:39;;;;;;;5.47;4.83;;;19.60;72.90;;;;;;4957699;29;20300;-74
2021/10/23 11:38:27;;;;;;;2.83;2.63;;;19.60;72.90;;;;;;4957760;28;20227;-74
2021/10/23 11:40:59;;;;;;;5.20;2.23;;;19.60;72.80;;;;;;4956652;29;20206;-74
2021/10/23 11:43:28;;;;;;;2.30;2.13;;;19.60;72.60;;;;;;4958198;28;20304;-74
2021/10/23 11:45:57;;;;;;;2.90;2.70;;;19.60;72.40;;;;;;4958063;28;20222;-74
2021/10/23 11:48:24;;;;;;;2.40;2.30;;;19.60;72.40;;;;;;4957411;28;20218;-74
2021/10/23 11:50:53;;;;;;;3.20;2.80;;;19.60;72.60;;;;;;4987130;28;20213;-74
2021/10/23 11:53:29;;;;;;;3.53;3.13;;;19.60;72.40;;;;;;4956515;29;20237;-74
2021/10/23 11:56:06;;;;;;;4.03;3.73;;;19.60;72.60;;;;;;4956929;28;20229;-74
2021/10/23 11:58:41;;;;;;;3.70;3.40;;;19.70;72.30;;;;;;4955877;28;20273;-74
2021/10/23 12:01:12;;;;;;;3.83;1.80;;;19.70;72.10;;;;;;4957083;28;20553;-74
2021/10/23 12:03:44;;;;;;;2.77;2.60;;;19.70;71.90;;;;;;4956139;28;20228;-74
2021/10/23 12:06:22;;;;;;;4.63;3.63;;;19.80;71.70;;;;;;4957401;28;20305;-74
2021/10/23 12:08:54;;;;;;;3.37;3.07;;;19.80;71.50;;;;;;4956652;28;20284;-73
2021/10/23 12:11:26;;;;;;;3.67;3.37;;;19.90;71.70;;;;;;4957189;28;20289;-75
2021/10/23 12:14:08;;;;;;;3.47;3.20;;;19.90;71.30;;;;;;4955206;28;20264;-75
2021/10/23 12:16:50;;;;;;;2.73;2.53;;;20.00;71.20;;;;;;4954906;28;20217;-75
2021/10/23 12:19:31;;;;;;;2.77;2.20;;;20.00;71.00;;;;;;4954353;28;20224;-74
2021/10/23 12:22:04;;;;;;;3.30;2.93;;;20.00;70.30;;;;;;4952964;28;20225;-74
2021/10/23 12:24:51;;;;;;;1.60;1.50;;;19.90;70.40;;;;;;4953651;29;20217;-75
2021/10/23 12:27:31;;;;;;;4.00;3.67;;;19.90;70.50;;;;;;4953007;28;20249;-74
2021/10/23 12:29:59;;;;;;;2.27;2.17;;;19.90;70.60;;;;;;4984875;28;20217;-75
2021/10/23 12:32:26;;;;;;;3.00;2.13;;;19.90;70.70;;;;;;4948514;28;20667;-74
2021/10/23 12:34:59;;;;;;;7.40;2.23;;;19.80;70.60;;;;;;4965240;28;20212;-75
2021/10/23 12:37:26;;;;;;;3.50;2.70;;;19.90;71.00;;;;;;4936880;28;20217;-75
2021/10/23 12:40:19;;;;;;;2.60;1.73;;;20.00;70.70;;;;;;4956228;29;20233;-75
2021/10/23 12:42:50;;;;;;;3.50;3.20;;;20.10;69.80;;;;;;4955342;28;20305;-74
2021/10/23 12:45:20;;;;;;;2.00;1.77;;;20.10;69.50;;;;;;4955962;28;20217;-74
2021/10/23 12:47:48;;;;;;;3.10;2.10;;;20.10;69.20;;;;;;4954101;28;20233;-74
2021/10/23 12:50:19;;;;;;;1.87;1.77;;;20.10;69.20;;;;;;4955162;29;20206;-75
2021/10/23 12:52:47;;;;;;;4.77;3.10;;;20.10;69.10;;;;;;4954213;29;20269;-75
2021/10/23 12:55:15;;;;;;;4.07;2.03;;;20.10;69.00;;;;;;4954920;28;20218;-76
2021/10/23 12:57:43;;;;;;;1.83;1.73;;;20.10;68.40;;;;;;4955327;28;20206;-74
2021/10/23 13:00:10;;;;;;;0.87;0.87;;;20.10;68.60;;;;;;4954417;28;20218;-75
2021/10/23 13:02:38;;;;;;;1.17;1.17;;;20.00;69.00;;;;;;4953687;29;20308;-75
2021/10/23 13:05:06;;;;;;;2.37;1.90;;;19.90;68.60;;;;;;4953644;29;20253;-75
2021/10/23 13:07:34;;;;;;;0.93;0.93;;;19.90;69.10;;;;;;4954247;29;20244;-74
2021/10/23 13:10:02;;;;;;;0.70;0.70;;;19.80;69.10;;;;;;4953899;28;20264;-76